createdAt,value
2018-12-13T00:00:49.378Z,17.33
2018-12-13T00:03:31.635Z,17.57
2018-12-13T00:06:13.479Z,18.00
2018-12-13T00:08:56.355Z,17.77
2018-12-13T00:11:38.751Z,19.00
2018-12-13T00:14:21.376Z,18.50
2018-12-13T00:17:03.960Z,16.20
2018-12-13T00:19:46.611Z,17.63
2018-12-13T00:22:29.817Z,18.43
2018-12-13T00:25:12.451Z,17.87
2018-12-13T00:27:55.247Z,17.57
2018-12-13T00:30:38.266Z,19.37
2018-12-13T00:33:20.581Z,19.60
2018-12-13T00:36:02.988Z,19.07
2018-12-13T00:38:45.069Z,19.03
2018-12-13T00:41:27.811Z,18.67
2018-12-13T00:44:10.691Z,20.13
2018-12-13T00:46:52.459Z,20.97
2018-12-13T00:49:34.704Z,21.07
2018-12-13T00:52:16.843Z,20.90
2018-12-13T00:54:59.064Z,22.80
2018-12-13T00:57:41.700Z,22.47
2018-12-13T01:00:24.019Z,23.47
2018-12-13T01:03:06.464Z,26.37
2018-12-13T01:05:50.926Z,26.53
2018-12-13T01:08:33.666Z,26.80
2018-12-13T01:11:16.735Z,27.17
2018-12-13T01:13:58.861Z,25.53
2018-12-13T01:16:41.573Z,21.20
2018-12-13T01:19:23.308Z,24.37
2018-12-13T01:22:05.446Z,23.27
2018-12-13T01:24:47.573Z,24.30
2018-12-13T01:27:30.015Z,24.40
2018-12-13T01:30:12.506Z,24.53
2018-12-13T01:32:55.612Z,23.73
2018-12-13T01:35:37.584Z,24.50
2018-12-13T01:38:20.021Z,27.40
2018-12-13T01:41:02.446Z,27.40
2018-12-13T01:43:46.056Z,26.73
2018-12-13T01:46:28.281Z,28.23
2018-12-13T01:49:10.344Z,28.93
2018-12-13T01:51:53.020Z,28.70
2018-12-13T01:54:35.090Z,29.23
2018-12-13T01:57:17.678Z,29.70
2018-12-13T02:00:00.656Z,31.73
2018-12-13T02:02:42.714Z,31.10
2018-12-13T02:05:25.213Z,31.97
2018-12-13T02:08:07.521Z,34.07
2018-12-13T02:10:50.138Z,33.97
2018-12-13T02:13:32.549Z,31.30
2018-12-13T02:16:15.263Z,31.63
2018-12-13T02:18:57.680Z,29.57
2018-12-13T02:21:40.894Z,27.50
2018-12-13T02:24:23.680Z,27.63
2018-12-13T02:27:06.031Z,28.23
2018-12-13T02:29:48.007Z,25.17
2018-12-13T02:32:30.544Z,24.00
2018-12-13T02:35:13.518Z,26.73
2018-12-13T02:37:55.951Z,26.47
2018-12-13T02:40:37.973Z,26.87
2018-12-13T02:43:20.452Z,26.60
2018-12-13T02:46:04.066Z,26.60
2018-12-13T02:48:47.199Z,26.57
2018-12-13T02:51:30.108Z,24.50
2018-12-13T02:54:13.649Z,24.70
2018-12-13T02:56:56.365Z,22.73
2018-12-13T02:59:38.859Z,24.63
2018-12-13T03:02:21.682Z,23.57
2018-12-13T03:05:05.097Z,21.23
2018-12-13T03:07:48.237Z,21.17
2018-12-13T03:10:30.925Z,19.10
2018-12-13T03:13:13.949Z,19.33
2018-12-13T03:15:56.242Z,17.83
2018-12-13T03:18:38.973Z,17.97
2018-12-13T03:21:21.011Z,17.03
2018-12-13T03:24:03.795Z,18.87
2018-12-13T03:26:46.327Z,18.43
2018-12-13T03:29:28.352Z,20.33
2018-12-13T03:32:10.575Z,19.80
2018-12-13T03:34:53.196Z,19.30
2018-12-13T03:37:35.582Z,19.20
2018-12-13T03:40:18.167Z,19.23
2018-12-13T03:43:00.885Z,19.67
2018-12-13T03:45:43.159Z,20.03
2018-12-13T03:48:26.697Z,21.87
2018-12-13T03:51:09.351Z,19.13
2018-12-13T03:53:52.020Z,19.93
2018-12-13T03:56:34.984Z,21.20
2018-12-13T03:59:17.760Z,20.47
2018-12-13T04:02:00.476Z,20.37
2018-12-13T04:04:42.839Z,21.63
2018-12-13T04:07:27.842Z,20.70
2018-12-13T04:10:09.126Z,20.77
2018-12-13T04:12:51.862Z,20.73
2018-12-13T04:15:34.861Z,19.53
2018-12-13T04:18:16.963Z,18.77
2018-12-13T04:20:59.315Z,18.00
2018-12-13T04:23:41.799Z,19.37
2018-12-13T04:26:24.260Z,18.67
2018-12-13T04:29:06.719Z,18.07
2018-12-13T04:31:49.403Z,17.87
2018-12-13T04:34:32.226Z,18.37
2018-12-13T04:37:14.048Z,18.27
2018-12-13T04:39:56.680Z,17.03
2018-12-13T04:42:39.488Z,17.07
2018-12-13T04:45:21.793Z,17.40
2018-12-13T04:48:05.282Z,17.30
2018-12-13T04:50:48.383Z,16.87
2018-12-13T04:53:30.376Z,18.10
2018-12-13T04:56:13.324Z,17.03
2018-12-13T04:58:56.573Z,17.03
2018-12-13T05:01:39.066Z,17.13
2018-12-13T05:04:22.292Z,17.67
2018-12-13T05:07:05.518Z,17.63
2018-12-13T05:09:47.526Z,17.23
2018-12-13T05:12:30.231Z,18.57
2018-12-13T05:15:12.333Z,15.93
2018-12-13T05:17:54.737Z,17.43
2018-12-13T05:20:37.555Z,18.30
2018-12-13T05:23:19.657Z,17.13
2018-12-13T05:26:02.178Z,17.03
2018-12-13T05:28:44.483Z,19.13
2018-12-13T05:31:26.822Z,17.27
2018-12-13T05:34:09.371Z,15.83
2018-12-13T05:36:52.258Z,18.23
2018-12-13T05:39:34.327Z,16.50
2018-12-13T05:42:16.885Z,17.23
2018-12-13T05:44:59.354Z,17.17
2018-12-13T05:47:41.995Z,16.83
2018-12-13T05:50:24.644Z,17.50
2018-12-13T05:53:07.564Z,18.10
2018-12-13T05:55:50.034Z,17.90
2018-12-13T05:58:32.443Z,17.17
2018-12-13T06:01:14.268Z,18.83
2018-12-13T06:03:56.729Z,21.03
2018-12-13T06:06:39.105Z,18.07
2018-12-13T06:09:20.916Z,18.97
2018-12-13T06:12:03.102Z,19.13
2018-12-13T06:14:44.902Z,19.77
2018-12-13T06:17:44.070Z,21.00
2018-12-13T06:21:29.400Z,20.27
2018-12-13T06:24:15.069Z,19.03
2018-12-13T06:26:56.618Z,17.90
2018-12-13T06:29:41.772Z,19.20
2018-12-13T06:32:23.108Z,20.07
2018-12-13T06:35:05.973Z,19.50
2018-12-13T06:37:47.767Z,21.23
2018-12-13T06:40:29.560Z,19.40
2018-12-13T06:43:12.935Z,22.27
2018-12-13T06:45:58.908Z,20.10
2018-12-13T06:48:41.327Z,19.90
2018-12-13T06:51:24.126Z,19.43
2018-12-13T06:54:06.533Z,19.10
2018-12-13T06:56:48.854Z,20.00
2018-12-13T06:59:31.604Z,18.00
2018-12-13T07:02:13.582Z,19.00
2018-12-13T07:04:59.037Z,18.57
2018-12-13T07:07:40.941Z,19.97
2018-12-13T07:10:23.965Z,20.07
2018-12-13T07:13:06.002Z,19.27
2018-12-13T07:15:48.689Z,21.20
2018-12-13T07:18:30.832Z,19.17
2018-12-13T07:21:12.474Z,19.40
2018-12-13T07:23:54.253Z,18.97
2018-12-13T07:26:36.554Z,20.20
2018-12-13T07:29:18.555Z,21.23
2018-12-13T07:32:00.757Z,19.60
2018-12-13T07:34:43.466Z,19.57
2018-12-13T07:37:25.692Z,20.90
2018-12-13T07:40:09.197Z,21.43
2018-12-13T07:42:51.030Z,21.13
2018-12-13T07:45:33.813Z,20.70
2018-12-13T07:48:15.954Z,22.60
2018-12-13T07:50:58.548Z,20.73
2018-12-13T07:53:41.252Z,22.00
2018-12-13T07:56:24.088Z,19.80
2018-12-13T07:59:06.462Z,21.13
2018-12-13T08:01:48.992Z,20.90
2018-12-13T08:04:31.852Z,21.00
2018-12-13T08:07:14.469Z,19.90
2018-12-13T08:09:56.611Z,20.77
2018-12-13T08:12:39.622Z,20.97
2018-12-13T08:15:21.662Z,20.20
2018-12-13T08:18:03.824Z,21.43
2018-12-13T08:20:46.090Z,19.43
2018-12-13T08:23:28.643Z,21.87
2018-12-13T08:26:10.972Z,20.47
2018-12-13T08:28:52.650Z,20.97
2018-12-13T08:31:36.177Z,20.77
2018-12-13T08:34:19.393Z,23.10
2018-12-13T08:37:01.726Z,20.80
2018-12-13T08:39:44.529Z,22.07
2018-12-13T08:42:26.722Z,21.03
2018-12-13T08:45:09.078Z,22.07
2018-12-13T08:47:51.359Z,20.73
2018-12-13T08:50:34.049Z,19.80
2018-12-13T08:53:16.092Z,19.83
2018-12-13T08:55:57.670Z,19.17
2018-12-13T08:58:39.737Z,21.77
2018-12-13T09:01:22.162Z,22.97
2018-12-13T09:04:03.753Z,21.37
2018-12-13T09:06:45.226Z,20.73
2018-12-13T09:09:26.936Z,20.07
2018-12-13T09:12:09.811Z,20.60
2018-12-13T09:14:52.059Z,19.67
2018-12-13T09:17:34.241Z,20.13
2018-12-13T09:20:15.871Z,21.17
2018-12-13T09:22:58.038Z,21.17
2018-12-13T09:25:39.639Z,20.13
2018-12-13T09:28:21.307Z,22.40
2018-12-13T09:31:03.910Z,20.63
2018-12-13T09:33:46.821Z,19.20
2018-12-13T09:36:28.518Z,21.43
2018-12-13T09:39:10.125Z,19.20
2018-12-13T09:41:52.467Z,18.20
2018-12-13T09:44:35.447Z,21.20
2018-12-13T09:47:17.972Z,21.37
2018-12-13T09:50:00.362Z,19.47
2018-12-13T09:52:43.464Z,20.10
2018-12-13T09:55:25.773Z,21.43
2018-12-13T09:58:08.181Z,20.70
2018-12-13T10:00:50.996Z,20.77
2018-12-13T10:03:32.794Z,22.17
2018-12-13T10:06:15.108Z,21.73
2018-12-13T10:08:56.780Z,22.53
2018-12-13T10:11:38.033Z,21.93
2018-12-13T10:14:20.214Z,21.93
2018-12-13T10:17:02.394Z,23.20
2018-12-13T10:19:43.986Z,22.13
2018-12-13T10:22:25.387Z,21.93
2018-12-13T10:25:06.825Z,23.77
2018-12-13T10:27:48.417Z,21.77
2018-12-13T10:30:30.223Z,23.37
2018-12-13T10:33:11.725Z,22.80
2018-12-13T10:35:54.609Z,22.07
2018-12-13T10:38:36.450Z,24.37
2018-12-13T10:41:18.335Z,22.27
2018-12-13T10:44:00.226Z,22.83
2018-12-13T10:46:42.517Z,21.30
2018-12-13T10:49:23.994Z,20.30
2018-12-13T10:52:05.697Z,21.97
2018-12-13T10:54:47.708Z,22.43
2018-12-13T10:57:30.021Z,21.03
2018-12-13T11:00:19.455Z,21.83
2018-12-13T11:03:21.043Z,21.83
2018-12-13T11:06:05.680Z,22.40
2018-12-13T11:08:50.293Z,22.03
2018-12-13T11:11:43.230Z,22.23
2018-12-13T11:14:33.534Z,20.17
2018-12-13T11:17:19.812Z,20.13
2018-12-13T11:20:03.862Z,20.27
2018-12-13T11:22:47.360Z,20.33
2018-12-13T11:25:31.827Z,19.73
2018-12-13T11:28:26.155Z,19.17
2018-12-13T11:31:10.316Z,20.13
2018-12-13T11:33:52.061Z,19.30
2018-12-13T11:36:34.173Z,18.50
2018-12-13T11:39:16.678Z,18.60
2018-12-13T11:41:57.939Z,16.47
2018-12-13T11:44:39.830Z,19.73
2018-12-13T11:47:25.681Z,19.53
2018-12-13T11:50:08.516Z,16.53
2018-12-13T11:52:50.397Z,16.10
2018-12-13T11:55:34.517Z,17.40
2018-12-13T11:58:16.906Z,17.43
2018-12-13T12:00:58.677Z,18.80
2018-12-13T12:03:40.694Z,18.37
2018-12-13T12:06:23.111Z,17.47
2018-12-13T12:09:12.011Z,17.60
2018-12-13T12:11:51.165Z,18.13
2018-12-13T12:14:34.557Z,15.97
2018-12-13T12:17:17.303Z,16.70
2018-12-13T12:20:03.662Z,16.80
2018-12-13T12:22:46.779Z,17.17
2018-12-13T12:25:30.064Z,16.57
2018-12-13T12:28:12.511Z,15.27
2018-12-13T12:30:55.175Z,15.27
2018-12-13T12:33:37.391Z,13.80
2018-12-13T12:36:19.954Z,13.80
2018-12-13T12:39:04.466Z,13.37
2018-12-13T12:41:57.283Z,13.83
2018-12-13T12:44:49.329Z,12.83
2018-12-13T12:47:32.557Z,13.43
2018-12-13T12:50:17.585Z,12.17
2018-12-13T12:52:59.291Z,14.23
2018-12-13T12:55:40.968Z,13.47
2018-12-13T12:58:23.691Z,14.47
2018-12-13T13:01:06.261Z,13.07
2018-12-13T13:03:48.366Z,12.07
2018-12-13T13:06:35.361Z,13.67
2018-12-13T13:09:25.057Z,14.17
2018-12-13T13:12:05.635Z,14.37
2018-12-13T13:14:48.345Z,13.00
2018-12-13T13:17:30.133Z,13.00
2018-12-13T13:20:12.128Z,11.83
2018-12-13T13:22:54.306Z,12.23
2018-12-13T13:25:35.858Z,11.37
2018-12-13T13:28:17.297Z,12.73
2018-12-13T13:30:59.432Z,12.10
2018-12-13T13:33:41.599Z,11.73
2018-12-13T13:36:23.182Z,10.87
2018-12-13T13:39:07.170Z,11.03
2018-12-13T13:41:49.322Z,10.70
2018-12-13T13:44:37.980Z,10.43
2018-12-13T13:47:20.729Z,10.07
2018-12-13T13:50:03.092Z,10.20
2018-12-13T13:52:45.239Z,9.20
2018-12-13T13:55:27.189Z,10.13
2018-12-13T13:58:10.087Z,10.83
2018-12-13T14:00:52.295Z,10.47
2018-12-13T14:03:34.576Z,9.60
2018-12-13T14:06:16.615Z,9.00
2018-12-13T14:09:04.188Z,9.40
2018-12-13T14:11:46.240Z,10.67
2018-12-13T14:14:28.433Z,10.90
2018-12-13T14:17:10.950Z,9.83
2018-12-13T14:19:53.384Z,9.73
2018-12-13T14:22:35.816Z,10.30
2018-12-13T14:25:18.174Z,10.07
2018-12-13T14:28:00.389Z,9.67
2018-12-13T14:30:43.533Z,10.80
2018-12-13T14:33:25.901Z,9.50
2018-12-13T14:36:08.747Z,9.57
2018-12-13T14:38:51.030Z,9.47
2018-12-13T14:41:35.073Z,9.67
2018-12-13T14:44:22.645Z,9.13
2018-12-13T14:47:04.030Z,9.73
2018-12-13T14:49:45.577Z,9.40
2018-12-13T14:52:27.253Z,8.30
2018-12-13T14:55:09.718Z,8.87
2018-12-13T14:57:52.293Z,8.63
2018-12-13T15:00:34.493Z,8.97
2018-12-13T15:03:16.781Z,8.43
2018-12-13T15:05:58.506Z,8.07
2018-12-13T15:08:41.113Z,9.07
2018-12-13T15:11:23.910Z,7.83
2018-12-13T15:14:06.226Z,8.10
2018-12-13T15:16:48.550Z,7.77
2018-12-13T15:19:29.836Z,10.27
2018-12-13T15:22:12.840Z,8.67
2018-12-13T15:24:55.258Z,9.10
2018-12-13T15:27:37.129Z,7.70
2018-12-13T15:30:20.708Z,8.17
2018-12-13T15:33:02.782Z,8.30
2018-12-13T15:35:44.270Z,8.07
2018-12-13T15:38:26.549Z,7.83
2018-12-13T15:41:08.717Z,7.57
2018-12-13T15:43:51.353Z,8.37
2018-12-13T15:46:33.515Z,8.33
2018-12-13T15:49:15.784Z,8.33
2018-12-13T15:51:57.682Z,7.70
2018-12-13T15:54:40.208Z,8.27
2018-12-13T15:57:22.470Z,7.53
2018-12-13T16:00:04.562Z,8.73
2018-12-13T16:02:46.617Z,9.60
2018-12-13T16:05:28.082Z,8.20
2018-12-13T16:08:10.479Z,8.33
2018-12-13T16:10:53.791Z,9.17
2018-12-13T16:13:35.657Z,10.77
2018-12-13T16:16:17.397Z,8.30
2018-12-13T16:18:59.586Z,9.80
2018-12-13T16:21:41.746Z,9.80
2018-12-13T16:24:24.024Z,9.90
2018-12-13T16:27:05.746Z,9.10
2018-12-13T16:29:47.390Z,9.53
2018-12-13T16:32:31.950Z,9.83
2018-12-13T16:35:18.935Z,9.33
2018-12-13T16:38:00.783Z,10.30
2018-12-13T16:40:43.546Z,10.07
2018-12-13T16:43:26.473Z,9.93
2018-12-13T16:46:08.002Z,9.73
2018-12-13T16:48:49.271Z,10.70
2018-12-13T16:51:31.119Z,10.93
2018-12-13T16:54:13.366Z,12.63
2018-12-13T16:56:55.224Z,11.13
2018-12-13T16:59:37.685Z,11.73
2018-12-13T17:02:20.537Z,13.10
2018-12-13T17:05:03.902Z,12.50
2018-12-13T17:07:47.335Z,13.13
2018-12-13T17:10:30.110Z,12.80
2018-12-13T17:13:12.649Z,13.57
2018-12-13T17:15:56.485Z,13.97
2018-12-13T17:18:45.972Z,13.67
2018-12-13T17:21:29.232Z,13.80
2018-12-13T17:24:12.554Z,12.73
2018-12-13T17:26:55.030Z,14.23
2018-12-13T17:29:37.526Z,13.77
2018-12-13T17:32:20.616Z,13.73
2018-12-13T17:35:02.522Z,13.43
2018-12-13T17:37:44.696Z,12.53
2018-12-13T17:40:27.878Z,12.58
2018-12-13T17:43:09.452Z,12.87
2018-12-13T17:45:50.782Z,12.93
2018-12-13T17:48:33.000Z,12.73
2018-12-13T17:51:17.642Z,12.53
2018-12-13T17:54:01.057Z,10.73
2018-12-13T17:56:49.434Z,13.03
2018-12-13T17:59:40.760Z,11.90
2018-12-13T18:02:23.409Z,12.00
2018-12-13T18:05:06.434Z,11.63
2018-12-13T18:07:48.297Z,10.73
2018-12-13T18:10:31.185Z,12.67
2018-12-13T18:13:13.604Z,12.10
2018-12-13T18:15:55.617Z,12.20
2018-12-13T18:18:37.507Z,13.20
2018-12-13T18:21:19.801Z,12.97
2018-12-13T18:24:02.094Z,11.60
2018-12-13T18:26:43.758Z,12.93
2018-12-13T18:29:27.229Z,11.83
2018-12-13T18:32:08.711Z,13.80
2018-12-13T18:34:50.402Z,13.23
2018-12-13T18:37:32.718Z,13.33
2018-12-13T18:40:14.397Z,14.27
2018-12-13T18:43:09.384Z,12.20
2018-12-13T18:46:25.272Z,12.50
2018-12-13T18:49:07.719Z,13.03
2018-12-13T18:51:51.102Z,13.03
2018-12-13T18:54:33.561Z,13.10
2018-12-13T18:57:15.773Z,12.90
2018-12-13T18:59:57.403Z,14.13
2018-12-13T19:02:38.818Z,13.13
2018-12-13T19:05:20.596Z,12.87
2018-12-13T19:08:03.006Z,14.40
2018-12-13T19:10:44.461Z,13.30
2018-12-13T19:13:26.828Z,14.33
2018-12-13T19:16:08.574Z,14.03
2018-12-13T19:18:51.702Z,14.67
2018-12-13T19:21:42.591Z,14.63
2018-12-13T19:24:24.529Z,16.00
2018-12-13T19:27:06.589Z,14.83
2018-12-13T19:29:48.517Z,17.17
2018-12-13T19:32:31.182Z,17.70
2018-12-13T19:35:19.260Z,17.20
2018-12-13T19:37:58.054Z,16.20
2018-12-13T19:40:40.342Z,16.60
2018-12-13T19:43:24.045Z,16.73
2018-12-13T19:46:06.557Z,18.53
2018-12-13T19:48:48.722Z,15.47
2018-12-13T19:51:31.273Z,17.03
2018-12-13T19:54:13.608Z,18.73
2018-12-13T19:56:55.329Z,17.60
2018-12-13T19:59:37.832Z,17.63
2018-12-13T20:02:20.236Z,16.47
2018-12-13T20:05:03.159Z,19.10
2018-12-13T20:07:46.550Z,17.30
2018-12-13T20:10:29.107Z,17.53
2018-12-13T20:13:11.700Z,17.07
2018-12-13T20:15:54.415Z,16.47
2018-12-13T20:18:36.737Z,16.97
2018-12-13T20:21:19.434Z,15.53
2018-12-13T20:24:01.458Z,17.13
2018-12-13T20:26:43.941Z,16.30
2018-12-13T20:29:26.656Z,16.60
2018-12-13T20:32:09.049Z,17.13
2018-12-13T20:34:51.368Z,15.27
2018-12-13T20:37:33.672Z,16.07
2018-12-13T20:40:15.979Z,16.07
2018-12-13T20:42:59.203Z,16.10
2018-12-13T20:45:41.510Z,15.13
2018-12-13T20:48:23.523Z,16.93
2018-12-13T20:51:06.134Z,16.13
2018-12-13T20:53:48.853Z,15.87
2018-12-13T20:56:31.170Z,16.43
2018-12-13T20:59:13.245Z,15.73
2018-12-13T21:01:56.158Z,16.07
2018-12-13T21:04:38.266Z,15.87
2018-12-13T21:07:26.281Z,15.97
2018-12-13T21:10:10.709Z,15.00
2018-12-13T21:12:53.468Z,15.30
2018-12-13T21:15:36.391Z,17.10
2018-12-13T21:18:18.718Z,15.27
2018-12-13T21:21:01.295Z,15.20
2018-12-13T21:27:30.874Z,17.17
2018-12-13T21:30:14.214Z,16.03
2018-12-13T21:32:57.313Z,16.93
2018-12-13T21:35:41.010Z,17.37
2018-12-13T21:38:23.710Z,17.83
2018-12-13T21:41:06.679Z,18.67
2018-12-13T21:43:51.272Z,19.33
2018-12-13T21:46:36.431Z,15.00
2018-12-13T21:49:21.408Z,17.47
2018-12-13T21:52:04.113Z,16.30
2018-12-13T21:54:46.928Z,18.30
2018-12-13T21:57:30.616Z,20.80
2018-12-13T22:00:15.913Z,20.87
2018-12-13T22:03:00.221Z,22.37
2018-12-13T22:05:42.901Z,22.20
2018-12-13T22:08:25.679Z,23.70
2018-12-13T22:11:10.562Z,21.63
2018-12-13T22:13:57.140Z,20.53
2018-12-13T22:16:40.187Z,17.37
2018-12-13T22:19:24.389Z,19.73
2018-12-13T22:22:08.163Z,17.93
2018-12-13T22:24:51.716Z,19.70
2018-12-13T22:27:36.042Z,18.20
2018-12-13T22:30:18.915Z,19.07
2018-12-13T22:33:04.269Z,20.97
2018-12-13T22:35:47.870Z,19.07
2018-12-13T22:38:30.960Z,19.20
2018-12-13T22:41:14.746Z,19.30
2018-12-13T22:43:58.288Z,19.13
2018-12-13T22:46:41.229Z,20.27
2018-12-13T22:49:23.843Z,19.83
2018-12-13T22:52:06.997Z,20.43
2018-12-13T22:54:51.741Z,21.13
2018-12-13T22:57:34.259Z,20.97
2018-12-13T23:00:18.585Z,18.40
2018-12-13T23:03:03.110Z,20.00
2018-12-13T23:05:46.124Z,20.70
2018-12-13T23:08:29.114Z,20.63
2018-12-13T23:11:14.436Z,22.57
2018-12-13T23:13:57.912Z,21.77
2018-12-13T23:16:40.645Z,22.20
2018-12-13T23:19:25.103Z,21.90
2018-12-13T23:22:08.142Z,22.30
2018-12-13T23:24:52.295Z,24.47
2018-12-13T23:27:36.931Z,24.30
2018-12-13T23:30:20.990Z,22.23
2018-12-13T23:33:03.768Z,23.07
2018-12-13T23:35:46.148Z,20.20
2018-12-13T23:38:31.049Z,20.33
2018-12-13T23:41:14.697Z,20.97
2018-12-13T23:43:57.693Z,21.83
2018-12-13T23:46:40.532Z,19.47
2018-12-13T23:49:23.932Z,21.57
2018-12-13T23:52:07.117Z,21.50
2018-12-13T23:54:50.137Z,22.07
2018-12-13T23:57:35.288Z,21.13
